createdAt,value
2022-09-04T10:38:19.997Z,100707.00
2022-09-04T10:42:03.355Z,100711.00
2022-09-04T10:44:46.858Z,100714.00
2022-09-04T10:47:48.769Z,100716.00
2022-09-04T10:50:36.292Z,100704.00
2022-09-04T10:53:39.939Z,100686.00
2022-09-04T10:56:26.876Z,100706.00
2022-09-04T10:59:32.745Z,100713.00
2022-09-04T11:02:45.592Z,100713.00
2022-09-04T11:05:33.608Z,100657.00
2022-09-04T11:08:41.709Z,100700.00
2022-09-04T11:11:39.106Z,100704.00
2022-09-04T11:14:40.391Z,100693.00
2022-09-04T11:17:46.771Z,100707.00
2022-09-04T11:21:31.093Z,100712.00
2022-09-04T11:24:55.841Z,100705.00
2022-09-04T11:28:07.683Z,100704.00
2022-09-04T11:31:03.954Z,100698.00
2022-09-04T11:34:36.813Z,100713.00
2022-09-04T11:37:57.904Z,100699.00
2022-09-04T11:41:29.103Z,100706.00
2022-09-04T11:44:46.319Z,100709.00
2022-09-04T11:48:07.468Z,100704.00
2022-09-04T11:51:19.280Z,100711.00
2022-09-04T11:54:46.934Z,100705.00
2022-09-04T11:57:40.588Z,100701.00
2022-09-04T12:00:17.148Z,100709.00
2022-09-04T12:03:35.195Z,100713.00
2022-09-04T12:06:45.410Z,100708.00
2022-09-04T12:09:50.258Z,100720.00
2022-09-04T12:13:15.277Z,100713.00
2022-09-04T12:16:47.235Z,100709.00
2022-09-04T12:20:24.082Z,100721.00
2022-09-04T12:23:34.123Z,100701.00
2022-09-04T12:26:55.124Z,100721.00
2022-09-04T12:30:05.560Z,100709.00
2022-09-04T12:33:36.591Z,100715.00
2022-09-04T12:36:54.217Z,100717.00
2022-09-04T12:40:29.364Z,100717.00
2022-09-04T12:43:22.943Z,100723.00
2022-09-04T12:46:19.553Z,100714.00
2022-09-04T12:49:16.448Z,100720.00
2022-09-04T12:52:04.889Z,100723.00
2022-09-04T12:54:52.023Z,100714.00
2022-09-04T12:57:41.203Z,100715.00
2022-09-04T13:00:17.973Z,100716.00
2022-09-04T13:03:10.438Z,100688.00
2022-09-04T13:06:16.262Z,100711.00
2022-09-04T13:09:07.781Z,100719.00
2022-09-04T13:12:09.084Z,100726.00
2022-09-04T13:15:19.376Z,100732.00
2022-09-04T13:18:12.542Z,100729.00
2022-09-04T13:21:05.401Z,100726.00
2022-09-04T13:23:58.059Z,100734.00
2022-09-04T13:26:54.414Z,100736.00
2022-09-04T13:29:46.095Z,100729.00
2022-09-04T13:33:02.314Z,100719.00
2022-09-04T13:36:10.677Z,100725.00
2022-09-04T13:39:54.514Z,100732.00
2022-09-04T13:43:25.316Z,100724.00
2022-09-04T13:46:06.079Z,100725.00
2022-09-04T13:48:52.216Z,100727.00
2022-09-04T13:51:34.093Z,100715.00
2022-09-04T13:54:13.756Z,100728.00
2022-09-04T13:56:59.410Z,100729.00
2022-09-04T13:59:34.352Z,100730.00
2022-09-04T14:02:14.485Z,100732.00
2022-09-04T14:04:57.356Z,100739.00
2022-09-04T14:07:41.549Z,100739.00
2022-09-04T14:10:27.809Z,100743.00
2022-09-04T14:13:24.431Z,100746.00
2022-09-04T14:16:06.903Z,100748.00
2022-09-04T14:19:17.428Z,100743.00
2022-09-04T14:22:18.281Z,100732.00
2022-09-04T14:25:11.776Z,100733.00
2022-09-04T14:27:59.905Z,100735.00
2022-09-04T14:30:46.163Z,100744.00
2022-09-04T14:33:36.994Z,100744.00
2022-09-04T14:36:26.683Z,100751.00
2022-09-04T14:39:21.336Z,100749.00
2022-09-04T14:42:26.913Z,100743.00
2022-09-04T14:45:19.735Z,100736.00
2022-09-04T14:47:57.286Z,100739.00
2022-09-04T14:50:50.699Z,100736.00
2022-09-04T14:53:29.644Z,100734.00
2022-09-04T14:56:23.329Z,100703.00
2022-09-04T14:59:10.276Z,100737.00
2022-09-04T15:02:08.141Z,100726.00
2022-09-04T15:04:48.884Z,100738.00
2022-09-04T15:07:51.035Z,100742.00
2022-09-04T15:10:33.057Z,100743.00
2022-09-04T15:13:48.817Z,100736.00
2022-09-04T15:16:42.996Z,100723.00
2022-09-04T15:19:46.846Z,100747.00
2022-09-04T15:22:28.016Z,100745.00
2022-09-04T15:25:08.850Z,100727.00
2022-09-04T15:27:52.314Z,100739.00
2022-09-04T15:30:33.601Z,100737.00
2022-09-04T15:33:20.803Z,100736.00
2022-09-04T15:36:08.902Z,100740.00
2022-09-04T15:38:51.033Z,100735.00
2022-09-04T15:41:37.856Z,100738.00
2022-09-04T15:44:27.871Z,100735.00
2022-09-04T15:47:15.945Z,100729.00
2022-09-04T15:49:55.815Z,100746.00
2022-09-04T15:52:42.233Z,100740.00
2022-09-04T15:55:27.655Z,100736.00
2022-09-04T15:58:13.655Z,100737.00
2022-09-04T16:01:14.679Z,100748.00
2022-09-04T16:04:03.379Z,100740.00
2022-09-04T16:06:54.466Z,100733.00
2022-09-04T16:09:40.145Z,100742.00
2022-09-04T16:12:21.585Z,100731.00
2022-09-04T16:15:02.090Z,100742.00
2022-09-04T16:17:45.086Z,100748.00
2022-09-04T16:20:27.719Z,100739.00
2022-09-04T16:23:08.519Z,100713.00
2022-09-04T16:25:48.345Z,100732.00
2022-09-04T16:28:31.402Z,100745.00
2022-09-04T16:31:14.623Z,100746.00
2022-09-04T16:33:53.386Z,100742.00
2022-09-04T16:36:36.138Z,100743.00
2022-09-04T16:39:22.604Z,100745.00
2022-09-04T16:42:10.881Z,100741.00
2022-09-04T16:44:51.881Z,100736.00
2022-09-04T16:47:37.324Z,100743.00
2022-09-04T16:50:24.925Z,100744.00
2022-09-04T16:53:13.560Z,100745.00
2022-09-04T16:56:00.021Z,100740.00
2022-09-04T16:58:43.981Z,100748.00
2022-09-04T17:01:28.081Z,100742.00
2022-09-04T17:04:40.341Z,100742.00
2022-09-04T17:07:21.453Z,100740.00
2022-09-04T17:10:03.805Z,100744.00
2022-09-04T17:12:53.805Z,100745.00
2022-09-04T17:15:44.225Z,100750.00
2022-09-04T17:18:29.981Z,100747.00
2022-09-04T17:23:43.041Z,100751.00
2022-09-04T17:29:08.975Z,100739.00
2022-09-04T17:29:14.606Z,100736.00
2022-09-04T17:30:56.162Z,100744.00
2022-09-04T17:40:03.576Z,100740.00
2022-09-04T17:40:51.163Z,100749.00
2022-09-04T17:40:51.766Z,100747.00
2022-09-04T17:43:21.742Z,100747.00
2022-09-04T17:46:02.425Z,100733.00
2022-09-04T17:48:43.666Z,100741.00
2022-09-04T17:51:24.365Z,100748.00
2022-09-04T17:54:03.611Z,100737.00
2022-09-04T17:56:43.500Z,100742.00
2022-09-04T17:59:27.180Z,100751.00
2022-09-04T18:02:12.972Z,100733.00
2022-09-04T18:04:57.184Z,100741.00
2022-09-04T18:08:08.950Z,100748.00
2022-09-04T18:10:39.051Z,100749.00
2022-09-04T18:13:36.221Z,100760.00
2022-09-04T18:17:11.070Z,100758.00
2022-09-04T18:19:47.245Z,100765.00
2022-09-04T18:22:31.909Z,100760.00
2022-09-04T18:25:18.045Z,100771.00
2022-09-04T18:28:11.228Z,100778.00
2022-09-04T18:37:08.640Z,100783.00
2022-09-04T18:37:25.490Z,100778.00
2022-09-04T18:37:43.974Z,100786.00
2022-09-04T18:40:43.082Z,100790.00
2022-09-04T18:49:28.297Z,100797.00
2022-09-04T18:50:28.382Z,100796.00
2022-09-04T18:50:30.450Z,100791.00
2022-09-04T18:52:30.242Z,100794.00
2022-09-04T18:55:14.707Z,100791.00
2022-09-04T18:57:53.355Z,100801.00
2022-09-04T19:00:38.085Z,100798.00
2022-09-04T19:03:19.945Z,100804.00
2022-09-04T19:06:00.837Z,100814.00
2022-09-04T19:08:41.429Z,100812.00
2022-09-04T19:11:24.103Z,100817.00
2022-09-04T19:14:10.207Z,100819.00
2022-09-04T19:16:49.990Z,100814.00
2022-09-04T19:19:31.667Z,100821.00
2022-09-04T19:22:14.625Z,100805.00
2022-09-04T19:24:56.983Z,100817.00
2022-09-04T19:27:41.643Z,100824.00
2022-09-04T19:30:23.557Z,100816.00
2022-09-04T19:33:17.779Z,100810.00
2022-09-04T19:36:01.178Z,100822.00
2022-09-04T19:45:53.991Z,100783.00
2022-09-04T19:46:09.597Z,100816.00
2022-09-04T19:46:26.070Z,100779.00
2022-09-04T19:48:21.344Z,100822.00
2022-09-04T19:53:31.646Z,100787.00
2022-09-04T19:54:15.754Z,100812.00
2022-09-04T19:57:32.942Z,100822.00
2022-09-04T20:00:43.151Z,100811.00
2022-09-04T20:03:30.533Z,100837.00
2022-09-04T20:06:21.637Z,100827.00
2022-09-04T20:09:06.587Z,100811.00
2022-09-04T20:11:51.112Z,100800.00
2022-09-04T20:14:32.777Z,100837.00
2022-09-04T20:17:28.606Z,100806.00
2022-09-04T20:20:12.175Z,100837.00
2022-09-04T20:22:53.466Z,100830.00
2022-09-04T20:25:41.507Z,100833.00
2022-09-04T20:28:36.557Z,100836.00
2022-09-04T20:31:40.223Z,100831.00
2022-09-04T20:34:33.570Z,100813.00
2022-09-04T20:37:29.085Z,100787.00
2022-09-04T20:40:26.875Z,100838.00
2022-09-04T20:43:19.990Z,100820.00
2022-09-04T20:52:09.136Z,100821.00
2022-09-04T20:52:50.227Z,100825.00
2022-09-04T20:53:08.728Z,100834.00
2022-09-04T20:55:46.935Z,100831.00
2022-09-04T21:03:14.333Z,100838.00
2022-09-04T21:03:22.696Z,100844.00
2022-09-04T21:05:54.036Z,100844.00
2022-09-04T21:08:44.958Z,100847.00
2022-09-04T21:11:40.287Z,100848.00
2022-09-04T21:14:27.401Z,100848.00
2022-09-04T21:17:34.717Z,100846.00
2022-09-04T21:21:00.509Z,100831.00
2022-09-04T21:24:28.717Z,100845.00
2022-09-04T21:27:35.996Z,100838.00
2022-09-04T21:30:15.583Z,100801.00
2022-09-04T21:33:26.602Z,100846.00
2022-09-04T21:36:26.516Z,100846.00
2022-09-04T21:39:40.725Z,100851.00
2022-09-04T21:43:05.742Z,100847.00
2022-09-04T21:46:15.135Z,100853.00
2022-09-04T21:49:11.735Z,100856.00
2022-09-04T21:52:28.856Z,100847.00
2022-09-04T21:58:45.373Z,100852.00
2022-09-04T22:02:45.890Z,100857.00
2022-09-04T22:02:54.312Z,100847.00
2022-09-04T22:05:44.257Z,100843.00
2022-09-04T22:13:31.762Z,100853.00
2022-09-04T22:13:37.851Z,100856.00
2022-09-04T22:15:00.338Z,100851.00
2022-09-04T22:18:10.634Z,100846.00
2022-09-04T22:21:18.797Z,100850.00
2022-09-04T22:24:46.163Z,100854.00
2022-09-04T22:28:09.230Z,100844.00
2022-09-04T22:31:37.925Z,100844.00
2022-09-04T22:34:58.432Z,100836.00
2022-09-04T22:38:25.819Z,100837.00
2022-09-04T22:41:29.651Z,100854.00
2022-09-04T22:44:21.487Z,100851.00
2022-09-04T22:47:27.332Z,100857.00
2022-09-04T22:50:50.403Z,100844.00
2022-09-04T22:54:02.543Z,100859.00
2022-09-04T22:56:54.907Z,100843.00
2022-09-04T23:00:11.608Z,100861.00
2022-09-04T23:03:33.079Z,100818.00
2022-09-04T23:11:15.523Z,100845.00
2022-09-04T23:13:43.008Z,100839.00
2022-09-04T23:14:00.810Z,100847.00
2022-09-04T23:17:19.728Z,100858.00
2022-09-04T23:26:32.945Z,100865.00
2022-09-04T23:26:50.368Z,100856.00
2022-09-04T23:27:34.117Z,100861.00
2022-09-04T23:30:26.360Z,100852.00
2022-09-04T23:33:52.550Z,100855.00
2022-09-04T23:37:22.931Z,100851.00
2022-09-04T23:40:35.366Z,100854.00
2022-09-04T23:44:11.244Z,100857.00
2022-09-04T23:47:46.611Z,100848.00
2022-09-04T23:50:25.473Z,100849.00
2022-09-04T23:53:17.965Z,100848.00
2022-09-04T23:56:12.460Z,100849.00
2022-09-04T23:59:37.186Z,100796.00
